Time;durP1;ratioP1;P1;durP2;ratioP2;P2;SDS_P1;SDS_P2;PMS_P1;PMS_P2;Temp;Humidity;BMP_temperature;BMP_pressure;BME280_temperature;BME280_humidity;BME280_pressure;Samples;Min_cycle;Max_cycle;Signal;HPM_P1;HPM_P2
2022/10/18 00:02:00;;;;;;;37.50;6.00;;;;;;;12.87;100.00;101585.84;4937106;29;20077;-69
2022/10/18 00:04:26;;;;;;;42.13;5.40;;;;;;;12.84;100.00;101570.03;4955445;29;20031;-69
2022/10/18 00:06:51;;;;;;;45.13;6.47;;;;;;;12.95;100.00;101584.88;4938051;29;20031;-69
2022/10/18 00:09:16;;;;;;;47.65;7.07;;;;;;;12.96;100.00;101589.25;4937835;29;20163;-70
2022/10/18 00:11:42;;;;;;;37.33;5.43;;;;;;;12.98;100.00;101589.91;4938297;29;20498;-70
2022/10/18 00:14:07;;;;;;;34.85;4.63;;;;;;;12.99;100.00;101596.13;4938337;28;20118;-70
2022/10/18 00:16:33;;;;;;;35.42;5.38;;;;;;;12.98;100.00;101597.13;4937738;29;20414;-69
2022/10/18 00:18:58;;;;;;;36.40;5.32;;;;;;;12.97;100.00;101604.41;4938003;29;20034;-69
2022/10/18 00:21:25;;;;;;;39.63;5.45;;;;;;;12.99;100.00;101605.06;4937949;29;20046;-69
2022/10/18 00:23:51;;;;;;;33.28;4.60;;;;;;;12.93;100.00;101597.75;4938089;29;20038;-70
2022/10/18 00:26:25;;;;;;;45.38;5.68;;;;;;;13.03;100.00;101605.50;4938408;28;20114;-70
2022/10/18 00:28:57;;;;;;;37.80;5.47;;;;;;;12.99;100.00;101601.53;4954744;29;20529;-69
2022/10/18 00:31:31;;;;;;;35.55;5.78;;;;;;;13.05;100.00;101609.69;4937856;29;20079;-69
2022/10/18 00:34:00;;;;;;;46.30;6.47;;;;;;;13.05;100.00;101604.28;4937907;29;20054;-70
2022/10/18 00:36:28;;;;;;;37.75;5.75;;;;;;;13.04;100.00;101597.19;4954589;29;20118;-70
2022/10/18 00:38:53;;;;;;;38.45;5.38;;;;;;;13.00;100.00;101595.91;4955175;28;20023;-69
2022/10/18 00:41:22;;;;;;;46.47;6.35;;;;;;;12.97;100.00;101590.06;4937569;29;20030;-70
2022/10/18 00:44:26;;;;;;;44.53;5.90;;;;;;;12.94;100.00;101586.72;4955017;29;20042;-69
2022/10/18 00:46:55;;;;;;;45.25;5.05;;;;;;;12.90;100.00;101595.44;4925155;29;20047;-69
2022/10/18 00:49:26;;;;;;;38.85;5.85;;;;;;;12.74;100.00;101574.94;4954922;29;20039;-69
2022/10/18 00:51:57;;;;;;;41.30;5.63;;;;;;;12.81;100.00;101586.63;4937655;29;20375;-69
2022/10/18 00:54:23;;;;;;;38.67;6.35;;;;;;;12.73;100.00;101575.13;4921842;29;20464;-69
2022/10/18 00:56:48;;;;;;;33.83;5.10;;;;;;;12.78;100.00;101584.34;4937730;29;20039;-69
2022/10/18 00:59:16;;;;;;;45.90;5.60;;;;;;;12.78;100.00;101596.97;4937574;29;20041;-69
2022/10/18 01:01:42;;;;;;;46.15;6.15;;;;;;;12.80;100.00;101589.53;4937552;29;20126;-69
2022/10/18 01:04:07;;;;;;;40.50;5.55;;;;;;;12.78;100.00;101592.44;4937461;29;20118;-69
2022/10/18 01:07:02;;;;;;;42.70;5.45;;;;;;;12.65;100.00;101579.66;4954724;29;20035;-69
2022/10/18 01:10:01;;;;;;;43.50;5.65;;;;;;;12.75;100.00;101595.53;4954639;29;20038;-69
2022/10/18 01:12:32;;;;;;;46.10;7.10;;;;;;;12.72;100.00;101593.22;4939024;29;20035;-69
2022/10/18 01:15:29;;;;;;;38.85;5.68;;;;;;;12.74;100.00;101593.81;4937266;29;20030;-69
2022/10/18 01:18:22;;;;;;;42.80;5.15;;;;;;;12.75;100.00;101581.16;4953416;29;20055;-69
2022/10/18 01:20:56;;;;;;;39.72;5.75;;;;;;;12.77;100.00;101579.09;4941792;29;20031;-69
2022/10/18 01:23:39;;;;;;;52.47;6.88;;;;;;;12.76;100.00;101583.69;4954335;29;20413;-69
2022/10/18 01:26:15;;;;;;;38.40;5.32;;;;;;;12.79;100.00;101582.47;4936919;29;20537;-69
2022/10/18 01:29:09;;;;;;;44.10;6.63;;;;;;;12.78;100.00;101581.63;4953695;28;20094;-69
2022/10/18 01:31:43;;;;;;;43.42;7.00;;;;;;;12.78;100.00;101578.06;4936850;29;20043;-69
2022/10/18 01:34:11;;;;;;;38.55;7.05;;;;;;;12.81;100.00;101585.78;4936672;29;20031;-69
2022/10/18 01:36:40;;;;;;;44.03;6.32;;;;;;;12.79;100.00;101566.25;4936688;29;20035;-70
2022/10/18 01:39:11;;;;;;;42.83;6.10;;;;;;;12.84;100.00;101566.50;4954008;28;20045;-69
2022/10/18 01:41:40;;;;;;;39.63;5.80;;;;;;;12.84;100.00;101575.44;4954017;29;20039;-69
2022/10/18 01:44:09;;;;;;;46.70;6.55;;;;;;;12.82;100.00;101572.09;4953769;28;20400;-69
2022/10/18 01:46:44;;;;;;;57.03;6.88;;;;;;;12.82;100.00;101564.00;4953992;29;20031;-69
2022/10/18 01:49:10;;;;;;;34.65;5.72;;;;;;;12.79;100.00;101572.50;4937726;29;20037;-69
2022/10/18 01:51:35;;;;;;;38.80;6.03;;;;;;;12.80;100.00;101573.31;4936356;29;20039;-70
2022/10/18 01:54:01;;;;;;;42.53;5.63;;;;;;;12.66;100.00;101559.69;4953484;29;20079;-69
2022/10/18 01:56:32;;;;;;;45.33;6.65;;;;;;;12.77;100.00;101569.13;4953480;29;20115;-69
2022/10/18 01:59:22;;;;;;;36.45;4.93;;;;;;;12.75;100.00;101562.25;4953876;29;20026;-69
2022/10/18 02:02:19;;;;;;;35.72;6.03;;;;;;;12.75;100.00;101565.81;4953747;29;20114;-69
2022/10/18 02:05:03;;;;;;;38.03;5.78;;;;;;;12.74;100.00;101557.88;4923577;29;20127;-69
2022/10/18 02:07:42;;;;;;;34.63;5.45;;;;;;;12.72;100.00;101562.66;4953615;29;20150;-70
2022/10/18 02:10:24;;;;;;;48.92;5.93;;;;;;;12.65;100.00;101549.13;4953427;29;20043;-69
2022/10/18 02:12:53;;;;;;;41.08;6.20;;;;;;;12.74;100.00;101568.69;4953302;29;20031;-70
2022/10/18 02:15:22;;;;;;;38.85;5.80;;;;;;;12.55;100.00;101527.84;4953418;29;20035;-70
2022/10/18 02:17:49;;;;;;;42.22;5.97;;;;;;;12.63;100.00;101533.09;4953464;29;20506;-70
2022/10/18 02:20:19;;;;;;;45.97;7.28;;;;;;;12.80;100.00;101570.63;4953375;28;20494;-70
2022/10/18 02:22:48;;;;;;;40.42;5.40;;;;;;;12.76;100.00;101562.06;4935856;29;20537;-70
2022/10/18 02:25:19;;;;;;;38.03;6.18;;;;;;;12.81;100.00;101565.00;4935935;29;20043;-70
2022/10/18 02:27:45;;;;;;;48.65;6.00;;;;;;;12.69;100.00;101543.13;4935877;29;20129;-70
2022/10/18 02:30:11;;;;;;;44.97;6.20;;;;;;;12.84;100.00;101563.78;4935726;29;20499;-69
2022/10/18 02:32:49;;;;;;;40.60;5.65;;;;;;;12.80;100.00;101559.81;4953137;29;20105;-70
2022/10/18 02:35:22;;;;;;;40.97;6.13;;;;;;;12.83;100.00;101556.72;4935561;29;20039;-70
2022/10/18 02:37:49;;;;;;;40.72;5.43;;;;;;;12.89;100.00;101561.34;4952592;28;20058;-70
2022/10/18 02:40:15;;;;;;;41.90;6.28;;;;;;;12.93;100.00;101563.44;4935531;29;20030;-70
2022/10/18 02:42:50;;;;;;;46.08;5.70;;;;;;;12.92;100.00;101561.78;4935803;29;20031;-70
2022/10/18 02:45:16;;;;;;;41.72;5.63;;;;;;;12.92;100.00;101560.97;4935619;29;20391;-69
2022/10/18 02:47:41;;;;;;;43.78;5.88;;;;;;;12.97;100.00;101571.16;4952168;29;20051;-69
2022/10/18 02:50:07;;;;;;;44.50;6.68;;;;;;;12.97;100.00;101566.59;4952379;29;20066;-70
2022/10/18 02:52:33;;;;;;;39.70;6.00;;;;;;;12.99;100.00;101564.53;4952461;29;20035;-70
2022/10/18 02:54:58;;;;;;;47.92;6.05;;;;;;;13.01;100.00;101572.44;4935623;29;20035;-70
2022/10/18 02:57:24;;;;;;;37.03;5.85;;;;;;;13.00;100.00;101560.81;4952792;29;20038;-70
2022/10/18 02:59:49;;;;;;;43.95;6.32;;;;;;;13.03;100.00;101556.88;4916604;29;20044;-69
2022/10/18 03:02:15;;;;;;;42.83;5.25;;;;;;;13.01;100.00;101567.03;4934094;29;20039;-68
2022/10/18 03:04:40;;;;;;;31.85;5.88;;;;;;;13.03;100.00;101568.50;4952856;29;20090;-68
2022/10/18 03:07:06;;;;;;;39.28;5.28;;;;;;;13.02;100.00;101566.03;4935595;29;20082;-68
2022/10/18 03:09:31;;;;;;;40.65;6.18;;;;;;;13.04;100.00;101572.88;4952633;29;20032;-68
2022/10/18 03:11:56;;;;;;;44.08;6.32;;;;;;;13.00;100.00;101566.19;4935649;29;20028;-69
2022/10/18 03:14:22;;;;;;;36.03;5.03;;;;;;;13.03;100.00;101560.41;4935262;29;20031;-69
2022/10/18 03:16:47;;;;;;;41.67;5.72;;;;;;;13.01;100.00;101548.94;4919863;29;20469;-69
2022/10/18 03:19:13;;;;;;;38.45;5.13;;;;;;;12.99;100.00;101551.03;4952708;29;20110;-68
2022/10/18 03:21:39;;;;;;;37.72;4.70;;;;;;;13.00;100.00;101551.88;4920990;29;20031;-69
2022/10/18 03:24:04;;;;;;;35.35;4.97;;;;;;;12.99;100.00;101561.84;4917180;29;20127;-69
2022/10/18 03:26:30;;;;;;;38.05;5.70;;;;;;;12.99;100.00;101564.53;4935355;29;20037;-69
2022/10/18 03:28:55;;;;;;;46.88;5.70;;;;;;;13.00;100.00;101568.06;4952046;28;20130;-69
2022/10/18 03:31:21;;;;;;;40.28;5.60;;;;;;;13.01;100.00;101577.84;4952653;29;20053;-69
2022/10/18 03:33:46;;;;;;;34.85;5.03;;;;;;;12.99;100.00;101571.81;4935580;29;20043;-68
2022/10/18 03:36:12;;;;;;;44.88;5.20;;;;;;;12.99;100.00;101564.53;4952587;28;20447;-69
2022/10/18 03:38:37;;;;;;;42.33;5.70;;;;;;;12.98;100.00;101551.22;4935195;29;20035;-70
2022/10/18 03:41:05;;;;;;;36.83;5.10;;;;;;;13.01;100.00;101540.84;4952475;29;20055;-69
2022/10/18 03:43:30;;;;;;;42.03;5.38;;;;;;;13.02;100.00;101547.94;4952423;29;20041;-69
2022/10/18 03:45:56;;;;;;;44.92;5.75;;;;;;;12.98;100.00;101549.38;4919941;29;20469;-69
2022/10/18 03:48:21;;;;;;;40.47;4.90;;;;;;;12.89;100.00;101537.03;4919740;29;20094;-69
2022/10/18 03:50:46;;;;;;;43.80;5.75;;;;;;;13.05;100.00;101557.53;4954196;28;20057;-69
2022/10/18 03:53:12;;;;;;;34.20;5.20;;;;;;;12.98;100.00;101545.81;4939203;29;20529;-69
2022/10/18 03:55:37;;;;;;;41.38;5.88;;;;;;;13.04;100.00;101547.72;4956487;29;20457;-68
2022/10/18 03:58:03;;;;;;;43.10;5.97;;;;;;;12.95;100.00;101530.84;4939102;29;20039;-69
2022/10/18 04:00:29;;;;;;;41.55;5.47;;;;;;;12.87;100.00;101510.22;4955792;29;20094;-70
2022/10/18 04:02:54;;;;;;;35.35;5.25;;;;;;;12.83;100.00;101500.00;4938187;29;20035;-69
2022/10/18 04:05:19;;;;;;;41.55;6.43;;;;;;;12.94;100.00;101537.28;4938835;29;20512;-69
2022/10/18 04:07:45;;;;;;;39.40;5.25;;;;;;;12.95;100.00;101533.56;4955819;29;20039;-70
2022/10/18 04:10:10;;;;;;;46.40;5.40;;;;;;;12.88;100.00;101532.66;4920557;29;20403;-68
2022/10/18 04:12:36;;;;;;;45.17;6.20;;;;;;;12.96;100.00;101540.63;4955446;29;20137;-71
2022/10/18 04:15:02;;;;;;;36.17;5.68;;;;;;;12.99;100.00;101542.94;4938285;29;20126;-70
2022/10/18 04:17:27;;;;;;;45.78;7.20;;;;;;;12.85;100.00;101504.19;4955575;29;20031;-70
2022/10/18 04:19:52;;;;;;;43.45;5.93;;;;;;;12.88;100.00;101517.31;4955948;29;20078;-69
2022/10/18 04:22:21;;;;;;;41.95;5.70;;;;;;;12.99;100.00;101540.22;4938531;29;20414;-69
2022/10/18 04:24:46;;;;;;;34.40;4.93;;;;;;;12.98;100.00;101535.88;4955613;29;20509;-69
2022/10/18 04:27:12;;;;;;;50.40;6.45;;;;;;;12.98;100.00;101527.75;4955655;29;20035;-69
2022/10/18 04:29:37;;;;;;;33.75;4.93;;;;;;;12.99;100.00;101534.81;4938459;29;20035;-69
2022/10/18 04:32:03;;;;;;;38.67;5.68;;;;;;;12.95;100.00;101528.16;4955452;28;20487;-69
2022/10/18 04:34:28;;;;;;;32.42;5.72;;;;;;;12.97;100.00;101525.25;4938362;29;20035;-68
2022/10/18 04:36:54;;;;;;;34.67;5.05;;;;;;;12.98;100.00;101535.00;4919636;29;20055;-68
2022/10/18 04:39:20;;;;;;;45.78;6.68;;;;;;;12.94;100.00;101527.28;4945478;29;20126;-68
2022/10/18 04:41:46;;;;;;;41.40;6.63;;;;;;;12.95;100.00;101528.16;4918827;29;20043;-70
2022/10/18 04:44:11;;;;;;;32.50;4.68;;;;;;;12.97;100.00;101536.88;4952861;29;20522;-68
2022/10/18 04:46:37;;;;;;;39.25;5.65;;;;;;;12.89;100.00;101523.53;4955026;29;20039;-68
2022/10/18 04:49:02;;;;;;;38.70;5.45;;;;;;;12.99;100.00;101542.94;4918727;29;20048;-68
2022/10/18 04:51:28;;;;;;;36.30;4.72;;;;;;;12.97;100.00;101544.16;4946724;29;20043;-67
2022/10/18 04:53:53;;;;;;;38.90;5.03;;;;;;;12.98;100.00;101533.16;4918491;29;20040;-68
2022/10/18 04:56:19;;;;;;;37.60;4.50;;;;;;;12.88;100.00;101522.72;4936535;29;20050;-68
2022/10/18 04:58:45;;;;;;;37.72;4.93;;;;;;;12.99;100.00;101536.69;4937848;29;20051;-68
2022/10/18 05:01:10;;;;;;;41.25;4.82;;;;;;;12.98;100.00;101538.56;4954381;28;20031;-68
2022/10/18 05:03:35;;;;;;;27.80;4.65;;;;;;;12.99;100.00;101540.22;4954880;29;20027;-68
2022/10/18 05:06:01;;;;;;;34.08;4.60;;;;;;;13.00;100.00;101535.66;4937757;29;20035;-68
2022/10/18 05:08:26;;;;;;;28.10;4.53;;;;;;;13.02;100.00;101542.53;4954736;29;20442;-68
2022/10/18 05:10:52;;;;;;;36.72;5.40;;;;;;;13.00;100.00;101531.09;4937582;29;20031;-69
2022/10/18 05:13:17;;;;;;;40.47;5.68;;;;;;;13.02;100.00;101533.59;4937269;29;20046;-68
2022/10/18 05:15:45;;;;;;;33.65;5.88;;;;;;;13.00;100.00;101528.38;4937471;29;20044;-68
2022/10/18 05:18:11;;;;;;;45.03;5.57;;;;;;;13.02;100.00;101539.84;4954412;28;20031;-68
2022/10/18 05:20:37;;;;;;;41.10;5.00;;;;;;;12.73;100.00;101521.13;4952818;29;20117;-68
2022/10/18 05:23:02;;;;;;;42.63;5.28;;;;;;;12.74;100.00;101547.09;4935638;29;20036;-68
2022/10/18 05:25:27;;;;;;;42.60;5.80;;;;;;;12.69;100.00;101535.00;4952581;28;20509;-68
2022/10/18 05:27:53;;;;;;;43.17;6.65;;;;;;;12.68;100.00;101541.44;4952541;29;20051;-69
2022/10/18 05:30:19;;;;;;;45.05;5.78;;;;;;;12.66;100.00;101543.50;4918135;29;20044;-69
2022/10/18 05:32:45;;;;;;;34.08;5.68;;;;;;;12.65;100.00;101539.16;4952687;29;20050;-68
2022/10/18 05:35:10;;;;;;;39.05;6.05;;;;;;;12.66;100.00;101539.97;4953847;29;20050;-69
2022/10/18 05:37:35;;;;;;;34.67;5.13;;;;;;;12.66;100.00;101535.41;4937080;29;20032;-68
2022/10/18 05:40:01;;;;;;;40.85;5.43;;;;;;;12.59;100.00;101539.91;4954557;29;20117;-69
2022/10/18 05:42:26;;;;;;;40.45;5.35;;;;;;;12.47;100.00;101533.34;4937063;29;20416;-69
2022/10/18 05:44:51;;;;;;;42.20;5.35;;;;;;;12.44;100.00;101531.03;4936808;29;20035;-68
2022/10/18 05:47:19;;;;;;;43.25;5.50;;;;;;;12.43;100.00;101540.19;4954566;29;20093;-69
2022/10/18 05:49:47;;;;;;;34.92;5.20;;;;;;;12.29;100.00;101506.00;4953804;29;20047;-70
2022/10/18 05:52:12;;;;;;;45.22;5.35;;;;;;;12.41;100.00;101531.44;4953991;29;20039;-67
2022/10/18 05:54:38;;;;;;;45.78;5.65;;;;;;;12.37;100.00;101530.97;4953829;29;20082;-68
2022/10/18 05:57:03;;;;;;;45.90;6.47;;;;;;;12.45;100.00;101538.97;4953880;29;20498;-67
2022/10/18 05:59:28;;;;;;;36.13;5.57;;;;;;;12.41;100.00;101532.25;4953751;29;20039;-69
2022/10/18 06:01:54;;;;;;;33.00;5.15;;;;;;;12.44;100.00;101541.84;4936675;29;20046;-71
2022/10/18 06:04:19;;;;;;;39.17;5.25;;;;;;;12.20;100.00;101506.13;4936496;29;20043;-68
2022/10/18 06:06:45;;;;;;;37.95;5.70;;;;;;;12.43;100.00;101541.00;4953924;29;20125;-68
2022/10/18 06:09:10;;;;;;;47.22;5.85;;;;;;;12.46;100.00;101540.63;4953792;29;20547;-69
2022/10/18 06:11:36;;;;;;;47.33;5.90;;;;;;;12.34;100.00;101519.75;4953717;29;20031;-69
2022/10/18 06:14:02;;;;;;;40.95;5.30;;;;;;;12.50;100.00;101551.03;4952781;28;20058;-68
2022/10/18 06:16:27;;;;;;;40.58;5.57;;;;;;;12.54;100.00;101553.16;4936214;29;20487;-70
2022/10/18 06:18:55;;;;;;;38.33;5.00;;;;;;;12.44;100.00;101549.94;4953755;29;20034;-69
2022/10/18 06:21:21;;;;;;;39.00;5.80;;;;;;;12.49;100.00;101554.78;4953761;29;20125;-68
2022/10/18 06:23:48;;;;;;;35.53;5.80;;;;;;;12.43;100.00;101540.19;4953658;29;20042;-69
2022/10/18 06:26:13;;;;;;;39.28;5.07;;;;;;;12.50;100.00;101557.28;4936311;29;20032;-69
2022/10/18 06:28:39;;;;;;;42.17;6.38;;;;;;;12.37;100.00;101536.38;4953544;28;20058;-68
2022/10/18 06:31:05;;;;;;;33.92;5.30;;;;;;;12.52;100.00;101555.22;4936116;29;20035;-69
2022/10/18 06:33:32;;;;;;;33.35;5.18;;;;;;;12.53;100.00;101559.59;4953414;28;20048;-68
2022/10/18 06:35:59;;;;;;;36.90;5.93;;;;;;;12.40;100.00;101536.00;4953455;29;20041;-69
2022/10/18 06:38:26;;;;;;;42.13;5.70;;;;;;;12.55;100.00;101553.97;4953247;29;20166;-69
2022/10/18 06:40:52;;;;;;;38.40;4.88;;;;;;;12.58;100.00;101559.84;4953289;29;20430;-69
2022/10/18 06:43:17;;;;;;;46.38;5.25;;;;;;;12.59;100.00;101558.81;4936116;29;20039;-71
2022/10/18 06:45:43;;;;;;;33.28;4.85;;;;;;;12.62;100.00;101561.13;4936023;29;20047;-69
2022/10/18 06:48:08;;;;;;;38.08;5.78;;;;;;;12.64;100.00;101559.06;4953143;29;20034;-68
2022/10/18 06:50:34;;;;;;;41.78;5.75;;;;;;;12.62;100.00;101563.00;4953212;29;20150;-69
2022/10/18 06:53:00;;;;;;;32.58;5.88;;;;;;;12.62;100.00;101553.03;4937587;29;20494;-69
2022/10/18 06:55:25;;;;;;;45.83;6.13;;;;;;;12.60;100.00;101552.38;4953530;28;20042;-69
2022/10/18 06:57:52;;;;;;;44.92;6.85;;;;;;;12.46;100.00;101532.53;4935752;29;20043;-69
2022/10/18 07:00:18;;;;;;;36.40;5.57;;;;;;;12.62;100.00;101554.91;4952669;29;20158;-69
2022/10/18 07:02:43;;;;;;;42.00;6.20;;;;;;;12.61;100.00;101556.75;4953295;29;20043;-69
2022/10/18 07:05:10;;;;;;;38.88;5.28;;;;;;;12.62;100.00;101560.31;4935948;29;20082;-68
2022/10/18 07:07:36;;;;;;;38.03;5.65;;;;;;;12.61;100.00;101567.53;4935964;29;20486;-69
2022/10/18 07:10:01;;;;;;;42.83;5.38;;;;;;;12.64;100.00;101572.56;4953149;29;20074;-69
2022/10/18 07:12:26;;;;;;;41.40;6.22;;;;;;;12.66;100.00;101565.09;4935815;28;20055;-71
2022/10/18 07:14:53;;;;;;;38.83;5.85;;;;;;;12.68;100.00;101563.06;4953179;29;20043;-69
2022/10/18 07:17:19;;;;;;;38.33;5.40;;;;;;;12.68;100.00;101559.50;4936325;29;20027;-70
2022/10/18 07:19:44;;;;;;;36.35;5.47;;;;;;;12.52;100.00;101540.91;4920081;29;20035;-71
2022/10/18 07:22:10;;;;;;;40.97;6.18;;;;;;;12.58;100.00;101546.34;4919996;29;20539;-71
2022/10/18 07:24:35;;;;;;;35.20;5.53;;;;;;;12.71;100.00;101567.22;4918307;29;20407;-70
2022/10/18 07:27:00;;;;;;;34.38;5.85;;;;;;;12.74;100.00;101569.53;4939461;29;20035;-69
2022/10/18 07:29:26;;;;;;;39.30;5.25;;;;;;;12.76;100.00;101566.66;4956718;28;20047;-70
2022/10/18 07:31:51;;;;;;;39.92;5.18;;;;;;;12.76;100.00;101572.03;4956698;29;20117;-70
2022/10/18 07:34:17;;;;;;;36.00;5.20;;;;;;;12.70;100.00;101568.25;4956661;28;20122;-70
2022/10/18 07:36:42;;;;;;;42.00;5.38;;;;;;;12.66;100.00;101578.59;4956785;29;20487;-69
2022/10/18 07:39:08;;;;;;;36.08;5.32;;;;;;;12.63;100.00;101576.28;4939430;29;20121;-70
2022/10/18 07:41:33;;;;;;;36.67;5.22;;;;;;;12.64;100.00;101575.25;4939303;28;20570;-71
2022/10/18 07:43:59;;;;;;;41.67;5.57;;;;;;;12.66;100.00;101567.81;4956642;29;20050;-70
2022/10/18 07:46:25;;;;;;;48.58;6.38;;;;;;;12.64;100.00;101575.25;4956193;29;20602;-70
2022/10/18 07:48:51;;;;;;;39.17;5.55;;;;;;;12.51;100.00;101545.44;4956461;29;20031;-70
2022/10/18 07:51:18;;;;;;;40.83;4.82;;;;;;;12.64;100.00;101569.84;4939354;29;20038;-71
2022/10/18 07:53:44;;;;;;;38.95;5.43;;;;;;;12.72;100.00;101568.06;4939180;29;20046;-71
2022/10/18 07:56:15;;;;;;;42.78;5.60;;;;;;;12.75;100.00;101564.94;4956027;29;20031;-71
2022/10/18 07:58:45;;;;;;;31.50;4.75;;;;;;;12.76;100.00;101572.88;4939314;29;20028;-71
2022/10/18 08:01:11;;;;;;;40.42;5.38;;;;;;;12.83;100.00;101565.66;4956768;29;20078;-70
2022/10/18 08:03:37;;;;;;;39.53;5.28;;;;;;;12.87;100.00;101566.94;4956421;29;20339;-69
2022/10/18 08:06:05;;;;;;;37.05;5.85;;;;;;;12.77;100.00;101557.50;4939421;29;20545;-71
2022/10/18 08:08:31;;;;;;;33.47;4.85;;;;;;;12.82;100.00;101557.78;4956290;29;20023;-71
2022/10/18 08:11:05;;;;;;;27.05;4.30;;;;;;;12.81;100.00;101574.97;4939032;29;20031;-70
2022/10/18 08:13:30;;;;;;;23.35;3.47;;;;;;;12.75;100.00;101575.75;4956321;28;20059;-70
2022/10/18 08:16:01;;;;;;;23.17;3.83;;;;;;;12.70;100.00;101574.47;4938837;29;20039;-70
2022/10/18 08:18:27;;;;;;;34.35;5.68;;;;;;;12.66;100.00;101556.16;4938876;29;20031;-71
2022/10/18 08:20:52;;;;;;;31.92;4.38;;;;;;;12.62;100.00;101566.53;4938954;29;20030;-71
2022/10/18 08:23:17;;;;;;;30.13;3.70;;;;;;;12.54;100.00;101560.41;4938861;29;20097;-71
2022/10/18 08:25:43;;;;;;;27.27;3.97;;;;;;;12.47;100.00;101568.44;4955924;28;20031;-71
2022/10/18 08:28:08;;;;;;;28.00;4.80;;;;;;;12.47;100.00;101568.44;4922487;29;20054;-71
2022/10/18 08:30:35;;;;;;;31.35;5.05;;;;;;;12.44;100.00;101560.75;4955831;29;20089;-71
2022/10/18 08:33:01;;;;;;;34.88;5.50;;;;;;;12.41;100.00;101558.41;4956019;29;20035;-72
2022/10/18 08:35:27;;;;;;;27.17;4.57;;;;;;;12.39;100.00;101560.50;4937970;28;20089;-70
2022/10/18 08:37:52;;;;;;;38.00;5.38;;;;;;;12.49;100.00;101569.09;4938228;29;20036;-71
2022/10/18 08:40:17;;;;;;;32.33;4.85;;;;;;;12.48;100.00;101570.13;4955329;29;20533;-71
2022/10/18 08:43:29;;;;;;;32.22;4.07;;;;;;;12.49;100.00;101571.81;4938037;29;20160;-71
2022/10/18 08:45:55;;;;;;;37.28;4.82;;;;;;;12.57;100.00;101562.72;4914635;29;20487;-71
2022/10/18 08:48:36;;;;;;;38.65;4.90;;;;;;;12.76;100.00;101558.53;4954829;29;20042;-71
2022/10/18 08:51:05;;;;;;;33.65;5.53;;;;;;;12.81;100.00;101569.56;4955288;29;20050;-71
2022/10/18 08:54:03;;;;;;;31.23;4.30;;;;;;;12.96;100.00;101566.81;4955103;28;20082;-71
2022/10/18 08:56:30;;;;;;;31.55;4.38;;;;;;;13.07;100.00;101566.25;4933439;29;20526;-71
2022/10/18 08:58:56;;;;;;;32.17;4.30;;;;;;;12.98;100.00;101543.97;4918894;29;20098;-70
2022/10/18 09:01:37;;;;;;;33.08;5.25;;;;;;;13.21;100.00;101553.66;4933044;29;20055;-70
2022/10/18 09:04:15;;;;;;;29.63;4.90;;;;;;;13.32;100.00;101555.88;4933462;29;20067;-69
2022/10/18 09:07:01;;;;;;;32.08;5.20;;;;;;;13.43;100.00;101568.81;4918598;29;20200;-69
2022/10/18 09:09:45;;;;;;;36.13;5.18;;;;;;;13.40;100.00;101547.56;4933428;29;20087;-69
2022/10/18 09:12:17;;;;;;;33.28;5.10;;;;;;;13.43;100.00;101563.41;4917341;29;20111;-69
2022/10/18 09:14:57;;;;;;;29.10;4.10;;;;;;;13.44;100.00;101562.34;4933392;29;20507;-68
2022/10/18 09:17:42;;;;;;;24.25;4.13;;;;;;;13.40;100.00;101564.63;4933547;29;20059;-68
2022/10/18 09:20:18;;;;;;;20.60;4.22;;;;;;;13.49;100.00;101570.72;4933423;29;20101;-69
2022/10/18 09:23:11;;;;;;;22.40;3.88;;;;;;;13.45;100.00;101565.91;4918989;29;20517;-68
2022/10/18 09:25:52;;;;;;;20.42;3.50;;;;;;;13.39;100.00;101575.66;4914199;29;20035;-69
2022/10/18 09:28:36;;;;;;;25.42;4.15;;;;;;;13.24;100.00;101580.28;4931612;29;20051;-70
2022/10/18 09:31:45;;;;;;;26.83;3.80;;;;;;;13.15;100.00;101583.16;4954515;29;20556;-69
2022/10/18 09:34:24;;;;;;;27.95;3.92;;;;;;;13.14;100.00;101583.34;4879074;29;20044;-70
2022/10/18 09:36:51;;;;;;;28.17;3.75;;;;;;;13.21;100.00;101559.94;4878721;29;20032;-70
2022/10/18 09:39:29;;;;;;;22.17;3.72;;;;;;;13.36;100.00;101562.53;4895059;29;20544;-70
2022/10/18 09:42:30;;;;;;;25.75;4.10;;;;;;;13.21;100.00;101529.34;4895213;29;20071;-70
2022/10/18 09:45:01;;;;;;;25.30;4.35;;;;;;;13.36;100.00;101557.97;4882341;29;20112;-70
2022/10/18 09:47:45;;;;;;;25.60;3.88;;;;;;;13.44;100.00;101567.75;4894083;29;20046;-69
2022/10/18 09:50:14;;;;;;;24.48;3.65;;;;;;;13.42;100.00;101563.63;4879034;29;20066;-70
2022/10/18 09:52:53;;;;;;;27.52;3.97;;;;;;;13.30;100.00;101560.63;4894964;29;20032;-70
2022/10/18 09:55:25;;;;;;;17.83;3.30;;;;;;;13.31;100.00;101573.09;4877462;29;20045;-70
2022/10/18 09:57:55;;;;;;;23.50;4.07;;;;;;;13.15;100.00;101558.84;4894102;29;20404;-68
2022/10/18 10:00:30;;;;;;;26.77;3.55;;;;;;;13.27;100.00;101569.13;4894479;29;20044;-70
2022/10/18 10:02:56;;;;;;;27.85;4.20;;;;;;;13.29;100.00;101570.59;4894301;29;20453;-70
2022/10/18 10:05:21;;;;;;;25.10;4.35;;;;;;;13.26;100.00;101545.84;4924118;29;20039;-71
2022/10/18 10:07:48;;;;;;;23.85;4.03;;;;;;;13.26;100.00;101546.66;4953547;29;20049;-70
2022/10/18 10:10:24;;;;;;;29.10;4.10;;;;;;;13.52;100.00;101564.91;4923519;29;20144;-71
2022/10/18 10:13:13;;;;;;;25.25;3.75;;;;;;;13.52;100.00;101570.31;4922955;29;20083;-70
2022/10/18 10:15:40;;;;;;;30.40;4.00;;;;;;;13.45;100.00;101577.56;4936603;29;20055;-69
2022/10/18 10:18:22;;;;;;;20.88;3.55;;;;;;;13.43;100.00;101574.22;4935444;29;20046;-70
2022/10/18 10:20:54;;;;;;;27.23;4.00;;;;;;;13.51;100.00;101574.06;4921909;29;20058;-69
2022/10/18 10:23:29;;;;;;;27.13;4.38;;;;;;;13.67;100.00;101572.88;4953510;29;20058;-69
2022/10/18 10:26:19;;;;;;;25.70;3.30;;;;;;;13.75;100.00;101572.72;4952967;29;20067;-68
2022/10/18 10:28:47;;;;;;;21.70;3.85;;;;;;;13.88;100.00;101577.34;4939064;29;20066;-68
2022/10/18 10:31:26;;;;;;;28.33;4.78;;;;;;;13.93;100.00;101574.03;4953734;29;20039;-69
2022/10/18 10:34:16;;;;;;;32.70;4.38;;;;;;;13.82;100.00;101567.34;4936086;29;20151;-68
2022/10/18 10:36:53;;;;;;;32.15;4.50;;;;;;;13.84;100.00;101576.94;4938259;29;20027;-70
2022/10/18 10:39:20;;;;;;;29.48;5.05;;;;;;;13.87;100.00;101575.66;4953234;29;20791;-67
2022/10/18 10:41:50;;;;;;;27.40;3.78;;;;;;;13.83;100.00;101574.41;4953171;29;20047;-71
2022/10/18 10:44:19;;;;;;;19.08;3.60;;;;;;;13.78;100.00;101566.91;4953388;29;20054;-68
2022/10/18 10:46:47;;;;;;;34.45;4.22;;;;;;;13.85;100.00;101577.75;4953012;29;20588;-70
2022/10/18 10:49:19;;;;;;;34.60;4.95;;;;;;;13.85;100.00;101578.59;4935769;29;20090;-70
2022/10/18 10:51:51;;;;;;;27.17;4.28;;;;;;;13.84;100.00;101582.34;4935710;29;20590;-70
2022/10/18 10:54:23;;;;;;;22.48;3.58;;;;;;;13.71;100.00;101562.50;4935831;29;20680;-69
2022/10/18 10:56:59;;;;;;;22.95;3.63;;;;;;;13.78;100.00;101579.59;4953082;29;20033;-68
2022/10/18 10:59:28;;;;;;;25.38;4.63;;;;;;;13.66;100.00;101551.47;4935193;29;20136;-71
2022/10/18 11:02:13;;;;;;;26.42;4.07;;;;;;;13.80;100.00;101575.63;4953029;29;20053;-69
2022/10/18 11:04:40;;;;;;;22.05;4.10;;;;;;;13.62;100.00;101546.44;4937721;29;20027;-69
2022/10/18 11:07:05;;;;;;;28.70;4.38;;;;;;;13.85;100.00;101575.88;4952813;29;20568;-68
2022/10/18 11:09:44;;;;;;;22.73;3.67;;;;;;;13.84;100.00;101574.22;4952990;29;20035;-66
2022/10/18 11:12:32;;;;;;;30.60;4.45;;;;;;;13.83;100.00;101575.25;4935913;28;20093;-69
2022/10/18 11:15:31;;;;;;;29.00;4.60;;;;;;;13.85;100.00;101569.66;4939969;29;20394;-69
2022/10/18 11:18:18;;;;;;;24.75;3.88;;;;;;;13.91;100.00;101582.38;4944829;29;20054;-69
2022/10/18 11:21:01;;;;;;;23.08;4.05;;;;;;;13.91;100.00;101582.38;4938039;29;20024;-69
2022/10/18 11:23:31;;;;;;;28.48;4.05;;;;;;;13.94;100.00;101583.81;4935621;29;20038;-69